Flight Track Log - Related Links

Times and Time Zones

All times are in EDT time to prevent confusion due to time zone crossing. See the UAL4498 flight status page for this flight to view local times or setup timezone preferences in your user account.

Time Position Orientation Groundspeed Altitude Reporting Facility
EDT Latitude Longitude Course Direction KTS MPH feet Rate Location/Type
Sun 09:51:22 AM 43.7583 -70.3272 289° West 279 321 5,600  Level Boston Center
Sun 09:52:24 AM 43.7625 -70.4336 273° West 272 313 8,100 2,164 Climbing Boston Center
Sun 09:53:24 AM 43.7517 -70.5317 261° West 268 308 10,000 1,686 Climbing Boston Center
Sun 09:54:00 AM 43.7216 -70.7361 264° West  Level FlightAware Approximate
Sun 09:54:25 AM 43.7408 -70.6383 262° West 281 323 11,500  Level Boston Center
Sun 09:55:00 AM 43.7089 -70.8401 245° Southwest  Level FlightAware Approximate
Sun 09:55:34 AM 43.7300 -70.7536 263° West 297 342 12,300  Level Boston Center
Sun 09:56:36 AM 43.6967 -70.9008 253° West 319 367 13,300 885 Climbing Boston Center
Sun 09:57:36 AM 43.6608 -71.0225 248° West 341 392 14,100 950 Climbing Boston Center
Sun 09:58:36 AM 43.6372 -71.1433 255° West 358 412 15,200 1,169 Climbing Boston Center
Sun 09:59:34 AM 43.6097 -71.2903 256° West 358 412 16,400 1,220 Climbing Boston Center
Sun 10:00:34 AM 43.5858 -71.4225 256° West 358 412 17,600 947 Climbing Boston Center
Sun 10:01:47 AM 43.5639 -71.5375 255° West 358 412 18,500 992 Climbing Boston Center
Sun 10:02:47 AM 43.5381 -71.6925 257° West 358 412 19,800 1,240 Climbing Boston Center
Sun 10:03:48 AM 43.5136 -71.8189 255° West 353 406 21,000 1,131 Climbing Boston Center
Sun 10:04:49 AM 43.4892 -71.9478 255° West 353 406 22,100 1,169 Climbing Boston Center
Sun 10:05:46 AM 43.4669 -72.0767 257° West 353 406 23,300 974 Climbing Boston Center
Sun 10:06:46 AM 43.4422 -72.2056 255° West 353 406 24,000 347 Climbing Boston Center
Sun 10:07:47 AM 43.4175 -72.3428 256° West 364 419 24,000  Level Boston Center
Sun 10:08:47 AM 43.3883 -72.4831 254° West 375 432 24,000  Level Boston Center
Sun 10:09:48 AM 43.3319 -72.6114 239° Southwest 380 437 24,000  Level Boston Center
Sun 10:10:48 AM 43.2753 -72.7394 239° Southwest 390 449 24,000  Level Boston Center
Sun 10:11:48 AM 43.2125 -72.8731 237° Southwest 403 464 24,000  Level Boston Center
Sun 10:12:46 AM 43.1472 -73.0150 238° Southwest 416 479 24,000 -458 Level Boston Center
Sun 10:13:46 AM 43.0922 -73.1394 239° Southwest 405 466 23,100 -1,488 Descending Boston Center
Sun 10:14:47 AM 43.0372 -73.2581 238° Southwest 387 445 21,000 -2,016 Descending Boston Center
Sun 10:15:48 AM 42.9781 -73.3708 234° Southwest 376 433 19,000 -1,820 Descending Boston Center
Sun 10:16:49 AM 42.9208 -73.4806 235° Southwest 371 427 17,300 -1,525 Descending Boston Center
Sun 10:17:46 AM 42.8636 -73.5872 234° Southwest 359 413 16,000 -661 Descending Boston Center
Sun 10:18:47 AM 42.8083 -73.6908 234° Southwest 359 413 16,000  Level Boston Center
Sun 10:19:47 AM 42.7486 -73.7972 233° Southwest 358 412 16,000 -50 Level Boston Center
Sun 10:20:48 AM 42.6606 -73.8461 202° Southwest 337 388 15,900  Descending Boston Center
Sun 10:21:48 AM 42.5689 -73.8439 179° South 332 382 16,000 51 Climbing Boston Center
Sun 10:22:46 AM 42.4625 -73.8417 179° South 347 399 16,000  Level Boston Center
Sun 10:23:46 AM 42.3750 -73.8397 179° South 352 405 16,000 -49 Level Boston Center
Sun 10:24:48 AM 42.2625 -73.8372 179° South 358 412 15,900 -49 Descending Boston Center
Sun 10:25:49 AM 42.1731 -73.8353 179° South 363 418 15,900  Level Boston Center
Sun 10:26:46 AM 42.0647 -73.8328 179° South 363 418 15,900  Level Boston Center
Sun 10:27:46 AM 41.9708 -73.8306 179° South 350 403 15,900 -843 Level Boston Center
Sun 10:28:47 AM 41.8958 -73.8292 179° South 322 371 14,200 -1,835 Descending Boston Center
Sun 10:29:47 AM 41.8042 -73.8269 179° South 303 349 12,200 -1,785 Descending Boston Center
Sun 10:30:48 AM 41.7356 -73.8256 179° South 285 328 10,600 -1,765 Descending Boston Center
Sun 10:31:46 AM 41.6603 -73.8350 185° South 267 307 8,700 -1,373 Descending Boston Center
Sun 10:32:46 AM 41.6136 -73.8894 221° Southwest 245 282 7,900 -393 Descending Boston Center
Sun 10:33:48 AM 41.5567 -73.9575 222° Southwest 250 288 7,900  Level Boston Center
Sun 10:34:49 AM 41.5078 -74.0147 221° Southwest 255 293 7,900 -102 Level Boston Center
Sun 10:35:46 AM 41.4547 -74.0769 221° Southwest 255 293 7,700 -458 Descending Boston Center
Sun 10:36:47 AM 41.4081 -74.1367 224° Southwest 244 281 7,000 -197 Descending Boston Center
Sun 10:38:49 AM 41.3000 -74.2500 218° Southwest 241 277 7,100 33 Climbing New York TRACON
Sun 10:39:49 AM 41.2500 -74.3167 225° Southwest 248 285 7,100 -250 Level New York TRACON
Sun 10:40:49 AM 41.1833 -74.3167 180° South 250 288 6,600 -750 Descending New York TRACON
Sun 10:41:49 AM 41.1333 -74.3000 166° South 241 277 5,600 -789 Descending New York TRACON
Sun 10:42:43 AM 41.0833 -74.2667 153° Southeast 213 245 5,100 -421 Descending New York TRACON
Sun 10:43:43 AM 41.0333 -74.2333 153° Southeast 188 216 4,800 -500 Descending New York TRACON
Sun 10:44:43 AM 40.9833 -74.1833 143° Southeast 188 216 4,100 -350 Descending New York TRACON
Sun 10:45:43 AM 40.9500 -74.1500 143° Southeast 184 212 4,100 -450 Level New York TRACON
Sun 10:46:43 AM 40.9000 -74.1000 143° Southeast 191 220 3,200 -526 Descending New York TRACON
Sun 10:47:37 AM 40.8667 -74.0833 159° South 179 206 3,100 -300 Descending New York TRACON
Sun 10:48:43 AM 40.8167 -74.0833 180° South 175 201 2,600 -650 Descending New York TRACON
Sun 10:49:37 AM 40.7833 -74.1167 217° Southwest 174 200 1,800 -842 Descending New York TRACON
Sun 10:50:37 AM 40.7333 -74.1333 194° South 148 170 1,000 -800 Descending New York TRACON

Login

Don't have an account? Register now (free) for customized features, flight alerts, and more!